Samskip Ice — C6SO4 — position and weather

sailwx.info

Track history (hours):
 
Tides and Currents Weather Stations Pressure Air Temp Water Temp Dewpoint Dewpoint Depression Visibility Wind Speed Wind Dir Waves Ship Positions

Samskip Ice

Last reported at 2016-Aug-26 00:07 UTC. Time now 2016-Aug-26 13:42 UTC.
Position N 59°21' E 004°56'.

Length 86 m; draft 4.8 m.

Type: Cargo ship. MMSI: 311411000.

Date/timePositionNaut miles runAvg speedWind from/ knotsBaromVisibWave heightAir tempDewpointWater temp
2016-Aug-26 00:07N 59°21' E 004°56'815.0
2016-Aug-25 23:34N 59°13' E 004°60'1312.5
2016-Aug-25 22:33N 59°07' E 005°22'10 9.9
2016-Aug-25 21:33N 59°02' E 005°38'9 9.4
2016-Aug-25 20:33N 58°53' E 005°45'2 1.7
2016-Aug-25 19:30N 58°51' E 005°45'0 0.0
2016-Aug-25 18:33N 58°51' E 005°45'0 0.0
2016-Aug-25 17:33N 58°51' E 005°45'0 0.0
2016-Aug-25 16:33N 58°51' E 005°45'0 0.0
2016-Aug-25 15:33N 58°51' E 005°45'0 0.0
2016-Aug-25 14:33N 58°51' E 005°45'0 0.0
2016-Aug-25 13:33N 58°51' E 005°45'0 0.0
2016-Aug-25 12:33N 58°51' E 005°45'0 0.0
2016-Aug-25 11:33N 58°51' E 005°45'0 0.0
2016-Aug-25 10:33N 58°51' E 005°45'0 0.0
2016-Aug-25 09:33N 58°51' E 005°45'0 0.0
2016-Aug-25 08:33N 58°51' E 005°45'0 0.0
2016-Aug-25 07:33N 58°51' E 005°45'0 0.0
2016-Aug-25 06:32N 58°51' E 005°45'0 0.0
2016-Aug-25 04:33N 58°51' E 005°45'5 4.7
2016-Aug-25 03:33N 58°56' E 005°46'9 9.3
2016-Aug-25 02:34N 59°03' E 005°35'1212.2
2016-Aug-25 01:34N 58°51' E 005°30'10 9.8
2016-Aug-25 00:34N 58°41' E 005°27'1110.8
2016-Aug-24 23:34N 58°31' E 005°35'1111.0
2016-Aug-24 22:34N 58°23' E 005°49'1111.2
2016-Aug-24 21:34N 58°16' E 006°04'1211.3
2016-Aug-24 20:32N 58°08' E 006°20'1111.0
2016-Aug-24 19:34N 58°01' E 006°36'1111.0
2016-Aug-24 18:34N 57°56' E 006°55'1110.9
2016-Aug-24 17:31N 57°53' E 007°15'8011.4
2016-Aug-24 10:28N 57°51' E 009°47'1211.5
2016-Aug-24 09:28N 57°50' E 010°08'1111.7
2016-Aug-24 08:33N 57°50' E 010°28'1111.0
2016-Aug-24 07:32N 57°47' E 010°49'1111.7
2016-Aug-24 06:34N 57°39' E 011°04'2612.9
2016-Aug-24 04:34N 57°18' E 011°32'1313.4
2016-Aug-24 03:34N 57°06' E 011°41'1313.2
2016-Aug-24 02:34N 56°54' E 011°51'1312.9
2016-Aug-24 01:34N 56°42' E 012°02'1212.5
2016-Aug-24 00:34N 56°31' E 012°11'1313.5
2016-Aug-23 23:33N 56°19' E 012°22'1413.8
2016-Aug-23 22:33N 56°07' E 012°33'1313.0
2016-Aug-23 21:33N 55°55' E 012°44'1312.8
2016-Aug-23 20:33N 55°42' E 012°41'1211.8
2016-Aug-23 19:33N 55°31' E 012°43'1312.6
2016-Aug-23 18:33N 55°18' E 012°42'1313.3
2016-Aug-23 17:33N 55°13' E 013°04'1312.9
2016-Aug-23 16:33N 55°08' E 013°25'1312.9
2016-Aug-23 15:33N 55°03' E 013°45'1313.1
2016-Aug-23 14:33N 54°57' E 014°06'1312.9
2016-Aug-23 13:33N 54°52' E 014°26'1212.4
2016-Aug-23 12:33N 54°52' E 014°48'1312.7
2016-Aug-23 11:33N 54°53' E 015°10'1312.6
2016-Aug-23 10:33N 54°55' E 015°31'8512.2
2016-Aug-23 03:33N 54°56' E 017°60'1313.2
2016-Aug-23 02:33N 54°55' E 018°23'1313.1
2016-Aug-23 01:33N 54°53' E 018°45'1212.3
2016-Aug-23 00:33N 54°43' E 018°58'1313.2
2016-Aug-22 23:33N 54°32' E 018°46'8 8.2
2016-Aug-22 22:33N 54°32' E 018°32'0 0.0
2016-Aug-22 21:33N 54°32' E 018°32'0 0.0
2016-Aug-22 20:33N 54°32' E 018°32'0 0.0
2016-Aug-22 19:33N 54°32' E 018°32'0 0.0
2016-Aug-22 18:33N 54°32' E 018°32'0 0.0
2016-Aug-22 17:33N 54°32' E 018°32'0 0.1
2016-Aug-22 16:32N 54°32' E 018°32'0 0.0
2016-Aug-22 15:22N 54°32' E 018°32'0 0.0
2016-Aug-22 14:31N 54°32' E 018°32'0 0.0
2016-Aug-22 13:34N 54°32' E 018°32'0 0.0
2016-Aug-22 12:33N 54°32' E 018°32'0 0.0
2016-Aug-22 11:33N 54°32' E 018°32'0 0.0
2016-Aug-22 10:33N 54°32' E 018°32'0 0.0
2016-Aug-22 09:33N 54°32' E 018°32'0 0.0
2016-Aug-22 08:33N 54°32' E 018°32'0 0.0
2016-Aug-22 07:33N 54°32' E 018°32'0 0.0
2016-Aug-22 06:33N 54°32' E 018°32'0 0.0
2016-Aug-22 05:33N 54°32' E 018°32'0 0.0
2016-Aug-22 04:33N 54°32' E 018°32'0 0.0
2016-Aug-22 03:33N 54°32' E 018°32'0 0.0
2016-Aug-22 02:33N 54°32' E 018°32'0 0.0
2016-Aug-22 01:33N 54°32' E 018°32'0 0.0
2016-Aug-22 00:33N 54°32' E 018°32'0 0.0
2016-Aug-21 23:33N 54°32' E 018°32'0 0.0
2016-Aug-21 22:33N 54°32' E 018°32'0 0.0
2016-Aug-21 21:33N 54°32' E 018°32'0 0.0
2016-Aug-21 20:33N 54°32' E 018°32'0 0.0
2016-Aug-21 19:33N 54°32' E 018°32'0 0.0
2016-Aug-21 18:33N 54°32' E 018°32'0 0.0
2016-Aug-21 17:33N 54°32' E 018°32'0 0.0
2016-Aug-21 16:31N 54°32' E 018°32'0 0.0
2016-Aug-21 13:33N 54°32' E 018°32'4 4.1
2016-Aug-21 12:33N 54°32' E 018°39'1211.9
2016-Aug-21 11:33N 54°40' E 018°56'1413.7
2016-Aug-21 10:33N 54°52' E 019°05'1413.7
2016-Aug-21 09:32N 55°05' E 019°15'1313.6
2016-Aug-21 08:33N 55°17' E 019°24'  
2016-Aug-18 02:04N 59°35' E 022°58'714.4
2016-Aug-18 01:33N 59°36' E 023°12'1414.3
2016-Aug-18 00:33N 59°41' E 023°40'1414.0
2016-Aug-17 23:33N 59°45' E 024°06'7414.4
2016-Aug-17 18:25N 60°01' E 026°29'1514.3
2016-Aug-17 17:23N 59°60' E 026°59'1614.2
2016-Aug-17 16:16N 60°06' E 027°28'1014.2
2016-Aug-17 15:33N 60°12' E 027°45'1514.4
2016-Aug-17 14:32N 60°09' E 028°14'1513.6
2016-Aug-17 13:25N 60°03' E 028°42'2613.4
2016-Aug-17 11:30N 60°01' E 029°33'1111.5
2016-Aug-17 10:33N 59°57' E 029°53'9 9.2
2016-Aug-17 09:33N 59°53' E 030°10'2 1.5
2016-Aug-17 08:31N 59°52' E 030°13'0 0.0
2016-Aug-17 07:31N 59°52' E 030°13'0 0.0
2016-Aug-17 06:28N 59°52' E 030°13'0 0.0
2016-Aug-17 05:34N 59°52' E 030°13'0 0.0
2016-Aug-17 04:31N 59°52' E 030°13'0 0.0
2016-Aug-17 03:34N 59°52' E 030°13'0 0.0
2016-Aug-17 02:30N 59°52' E 030°13'0 0.0
2016-Aug-17 01:33N 59°52' E 030°13'0 0.0
2016-Aug-17 00:33N 59°52' E 030°13'0 0.0
2016-Aug-16 23:33N 59°52' E 030°13'0 0.0
2016-Aug-16 22:33N 59°52' E 030°13'0 0.0
2016-Aug-16 21:33N 59°52' E 030°13'0 0.0
2016-Aug-16 20:33N 59°52' E 030°13'0 0.0
2016-Aug-16 19:33N 59°52' E 030°13'0 0.0
2016-Aug-16 18:33N 59°52' E 030°13'0 0.0
2016-Aug-16 17:33N 59°52' E 030°13'0 0.0
2016-Aug-16 16:33N 59°52' E 030°13'0 0.0
2016-Aug-16 15:33N 59°52' E 030°13'0 0.0
2016-Aug-16 14:33N 59°52' E 030°13'0 0.0
2016-Aug-16 13:33N 59°52' E 030°13'0 0.0
2016-Aug-16 12:33N 59°52' E 030°13'0 0.0
2016-Aug-16 11:33N 59°52' E 030°13'0 0.0
2016-Aug-16 09:30N 59°52' E 030°13'0 0.0
2016-Aug-16 08:33N 59°52' E 030°13'0 0.0
2016-Aug-16 07:27N 59°52' E 030°13'0 0.0
2016-Aug-16 04:33N 59°52' E 030°13'0 0.0
2016-Aug-16 03:33N 59°52' E 030°13'0 0.0
2016-Aug-16 02:33N 59°52' E 030°13'0 0.0
2016-Aug-16 01:33N 59°52' E 030°13'0 0.0
2016-Aug-16 00:33N 59°52' E 030°13'  
Track history (hours):
 
Tides and Currents Weather Stations Pressure Air Temp Water Temp Dewpoint Dewpoint Depression Visibility Wind Speed Wind Dir Waves Ship Positions

Samskip Ice

Last reported at 2016-Aug-26 00:07 UTC. Time now 2016-Aug-26 13:42 UTC.
Position N 59°21' E 004°56'.

Length 86 m; draft 4.8 m.

Type: Cargo ship. MMSI: 311411000.

Date/timePositionNaut miles runAvg speedWind from/ knotsBaromVisibWave heightAir tempDewpointWater temp
2016-Aug-26 00:07N 59°21' E 004°56'815.0
2016-Aug-25 23:34N 59°13' E 004°60'1312.5
2016-Aug-25 22:33N 59°07' E 005°22'10 9.9
2016-Aug-25 21:33N 59°02' E 005°38'9 9.4
2016-Aug-25 20:33N 58°53' E 005°45'2 1.7
2016-Aug-25 19:30N 58°51' E 005°45'0 0.0
2016-Aug-25 18:33N 58°51' E 005°45'0 0.0
2016-Aug-25 17:33N 58°51' E 005°45'0 0.0
2016-Aug-25 16:33N 58°51' E 005°45'0 0.0
2016-Aug-25 15:33N 58°51' E 005°45'0 0.0
2016-Aug-25 14:33N 58°51' E 005°45'0 0.0
2016-Aug-25 13:33N 58°51' E 005°45'0 0.0
2016-Aug-25 12:33N 58°51' E 005°45'0 0.0
2016-Aug-25 11:33N 58°51' E 005°45'0 0.0
2016-Aug-25 10:33N 58°51' E 005°45'0 0.0
2016-Aug-25 09:33N 58°51' E 005°45'0 0.0
2016-Aug-25 08:33N 58°51' E 005°45'0 0.0
2016-Aug-25 07:33N 58°51' E 005°45'0 0.0
2016-Aug-25 06:32N 58°51' E 005°45'0 0.0
2016-Aug-25 04:33N 58°51' E 005°45'5 4.7
2016-Aug-25 03:33N 58°56' E 005°46'9 9.3
2016-Aug-25 02:34N 59°03' E 005°35'1212.2
2016-Aug-25 01:34N 58°51' E 005°30'10 9.8
2016-Aug-25 00:34N 58°41' E 005°27'1110.8
2016-Aug-24 23:34N 58°31' E 005°35'1111.0
2016-Aug-24 22:34N 58°23' E 005°49'1111.2
2016-Aug-24 21:34N 58°16' E 006°04'1211.3
2016-Aug-24 20:32N 58°08' E 006°20'1111.0
2016-Aug-24 19:34N 58°01' E 006°36'1111.0
2016-Aug-24 18:34N 57°56' E 006°55'1110.9
2016-Aug-24 17:31N 57°53' E 007°15'8011.4
2016-Aug-24 10:28N 57°51' E 009°47'1211.5
2016-Aug-24 09:28N 57°50' E 010°08'1111.7
2016-Aug-24 08:33N 57°50' E 010°28'1111.0
2016-Aug-24 07:32N 57°47' E 010°49'1111.7
2016-Aug-24 06:34N 57°39' E 011°04'2612.9
2016-Aug-24 04:34N 57°18' E 011°32'1313.4
2016-Aug-24 03:34N 57°06' E 011°41'1313.2
2016-Aug-24 02:34N 56°54' E 011°51'1312.9
2016-Aug-24 01:34N 56°42' E 012°02'1212.5
2016-Aug-24 00:34N 56°31' E 012°11'1313.5
2016-Aug-23 23:33N 56°19' E 012°22'1413.8
2016-Aug-23 22:33N 56°07' E 012°33'1313.0
2016-Aug-23 21:33N 55°55' E 012°44'1312.8
2016-Aug-23 20:33N 55°42' E 012°41'1211.8
2016-Aug-23 19:33N 55°31' E 012°43'1312.6
2016-Aug-23 18:33N 55°18' E 012°42'1313.3
2016-Aug-23 17:33N 55°13' E 013°04'1312.9
2016-Aug-23 16:33N 55°08' E 013°25'1312.9
2016-Aug-23 15:33N 55°03' E 013°45'1313.1
2016-Aug-23 14:33N 54°57' E 014°06'1312.9
2016-Aug-23 13:33N 54°52' E 014°26'1212.4
2016-Aug-23 12:33N 54°52' E 014°48'1312.7
2016-Aug-23 11:33N 54°53' E 015°10'1312.6
2016-Aug-23 10:33N 54°55' E 015°31'8512.2
2016-Aug-23 03:33N 54°56' E 017°60'1313.2
2016-Aug-23 02:33N 54°55' E 018°23'1313.1
2016-Aug-23 01:33N 54°53' E 018°45'1212.3
2016-Aug-23 00:33N 54°43' E 018°58'1313.2
2016-Aug-22 23:33N 54°32' E 018°46'8 8.2
2016-Aug-22 22:33N 54°32' E 018°32'0 0.0
2016-Aug-22 21:33N 54°32' E 018°32'0 0.0
2016-Aug-22 20:33N 54°32' E 018°32'0 0.0
2016-Aug-22 19:33N 54°32' E 018°32'0 0.0
2016-Aug-22 18:33N 54°32' E 018°32'0 0.0
2016-Aug-22 17:33N 54°32' E 018°32'0 0.1
2016-Aug-22 16:32N 54°32' E 018°32'0 0.0
2016-Aug-22 15:22N 54°32' E 018°32'0 0.0
2016-Aug-22 14:31N 54°32' E 018°32'0 0.0
2016-Aug-22 13:34N 54°32' E 018°32'0 0.0
2016-Aug-22 12:33N 54°32' E 018°32'0 0.0
2016-Aug-22 11:33N 54°32' E 018°32'0 0.0
2016-Aug-22 10:33N 54°32' E 018°32'0 0.0
2016-Aug-22 09:33N 54°32' E 018°32'0 0.0
2016-Aug-22 08:33N 54°32' E 018°32'0 0.0
2016-Aug-22 07:33N 54°32' E 018°32'0 0.0
2016-Aug-22 06:33N 54°32' E 018°32'0 0.0
2016-Aug-22 05:33N 54°32' E 018°32'0 0.0
2016-Aug-22 04:33N 54°32' E 018°32'0 0.0
2016-Aug-22 03:33N 54°32' E 018°32'0 0.0
2016-Aug-22 02:33N 54°32' E 018°32'0 0.0
2016-Aug-22 01:33N 54°32' E 018°32'0 0.0
2016-Aug-22 00:33N 54°32' E 018°32'0 0.0
2016-Aug-21 23:33N 54°32' E 018°32'0 0.0
2016-Aug-21 22:33N 54°32' E 018°32'0 0.0
2016-Aug-21 21:33N 54°32' E 018°32'0 0.0
2016-Aug-21 20:33N 54°32' E 018°32'0 0.0
2016-Aug-21 19:33N 54°32' E 018°32'0 0.0
2016-Aug-21 18:33N 54°32' E 018°32'0 0.0
2016-Aug-21 17:33N 54°32' E 018°32'0 0.0
2016-Aug-21 16:31N 54°32' E 018°32'0 0.0
2016-Aug-21 13:33N 54°32' E 018°32'4 4.1
2016-Aug-21 12:33N 54°32' E 018°39'1211.9
2016-Aug-21 11:33N 54°40' E 018°56'1413.7
2016-Aug-21 10:33N 54°52' E 019°05'1413.7
2016-Aug-21 09:32N 55°05' E 019°15'1313.6
2016-Aug-21 08:33N 55°17' E 019°24'  
2016-Aug-18 02:04N 59°35' E 022°58'714.4
2016-Aug-18 01:33N 59°36' E 023°12'1414.3
2016-Aug-18 00:33N 59°41' E 023°40'1414.0
2016-Aug-17 23:33N 59°45' E 024°06'7414.4
2016-Aug-17 18:25N 60°01' E 026°29'1514.3
2016-Aug-17 17:23N 59°60' E 026°59'1614.2
2016-Aug-17 16:16N 60°06' E 027°28'1014.2
2016-Aug-17 15:33N 60°12' E 027°45'1514.4
2016-Aug-17 14:32N 60°09' E 028°14'1513.6
2016-Aug-17 13:25N 60°03' E 028°42'2613.4
2016-Aug-17 11:30N 60°01' E 029°33'1111.5
2016-Aug-17 10:33N 59°57' E 029°53'9 9.2
2016-Aug-17 09:33N 59°53' E 030°10'2 1.5
2016-Aug-17 08:31N 59°52' E 030°13'0 0.0
2016-Aug-17 07:31N 59°52' E 030°13'0 0.0
2016-Aug-17 06:28N 59°52' E 030°13'0 0.0
2016-Aug-17 05:34N 59°52' E 030°13'0 0.0
2016-Aug-17 04:31N 59°52' E 030°13'0 0.0
2016-Aug-17 03:34N 59°52' E 030°13'0 0.0
2016-Aug-17 02:30N 59°52' E 030°13'0 0.0
2016-Aug-17 01:33N 59°52' E 030°13'0 0.0
2016-Aug-17 00:33N 59°52' E 030°13'0 0.0
2016-Aug-16 23:33N 59°52' E 030°13'0 0.0
2016-Aug-16 22:33N 59°52' E 030°13'0 0.0
2016-Aug-16 21:33N 59°52' E 030°13'0 0.0
2016-Aug-16 20:33N 59°52' E 030°13'0 0.0
2016-Aug-16 19:33N 59°52' E 030°13'0 0.0
2016-Aug-16 18:33N 59°52' E 030°13'0 0.0
2016-Aug-16 17:33N 59°52' E 030°13'0 0.0
2016-Aug-16 16:33N 59°52' E 030°13'0 0.0
2016-Aug-16 15:33N 59°52' E 030°13'0 0.0
2016-Aug-16 14:33N 59°52' E 030°13'0 0.0
2016-Aug-16 13:33N 59°52' E 030°13'0 0.0
2016-Aug-16 12:33N 59°52' E 030°13'0 0.0
2016-Aug-16 11:33N 59°52' E 030°13'0 0.0
2016-Aug-16 09:30N 59°52' E 030°13'0 0.0
2016-Aug-16 08:33N 59°52' E 030°13'0 0.0
2016-Aug-16 07:27N 59°52' E 030°13'0 0.0
2016-Aug-16 04:33N 59°52' E 030°13'0 0.0
2016-Aug-16 03:33N 59°52' E 030°13'0 0.0
2016-Aug-16 02:33N 59°52' E 030°13'0 0.0
2016-Aug-16 01:33N 59°52' E 030°13'0 0.0
2016-Aug-16 00:33N 59°52' E 030°13'  

Dump ship's entire track history